Airfield :
LOGIN :

Register | Disclaimer

   EN    FR    IT 

 










Legend :    VFR   Marginal VFR   IFR   Intensive IFR   Very Intensive IFR
Visi :
Ceiling :
>= 8 km
>= 3000ft
5 to 8 km
1000 to 3000 ft
1500m to 5 km
500 to 1000 ft
800 to 1500m
200 to 500 ft
< 800m
< 200 ft
Symbols :   Thunderstorms  Fog  Heavy snow  Heavy precipitations  Wind > 20 kt
SIGMETs :     Misc.  Thunderstorms  Icing  Turbulence  Mountain Waves  Volcanic Ashes






- Airport Elevation : 157 ft
- IATA code : LIL


LFQQ - Lille Lesquin

CURRENT METAR :
  • 231800Z AUTO 31016KT 9999 FEW013 BKN023 BKN030 09/06 Q1021 NOSIG

EXPIRED METARs :
  • 231730Z AUTO 27016KT 9999 FEW010/// SCT015/// BKN038/// ///TCU 10/08 Q1020 BECMG 22005KT BKN025
  • 231700Z AUTO 26019KT 9999 BKN017/// OVC025/// ///TCU 12/10 Q1019 TEMPO 3000 DZRA BECMG 32015G25KT BKN025
  • 231630Z AUTO 26020KT 9999 OVC015 12/10 Q1018 TEMPO 3000 DZRA OVC004 BECMG 32015G25KT
  • 231600Z AUTO 25022KT 9999 OVC014 13/10 Q1018 TEMPO 3000 DZRA OVC004 BECMG 24025G35KT
  • 231530Z AUTO 25024G34KT 9999 OVC014 13/10 Q1017 TEMPO 3000 DZRA OVC004
  • 231500Z AUTO 25024G34KT 9999 OVC014 13/10 Q1017 TEMPO 3000 DZRA OVC004

TAF TAF LFQQ
Valid from the 23 at 18:00 until the 25 at 00:00 UTC


231700Z 2318/2424 30012KT 9999 BKN030
BECMG 2320/2323 VRB02KT
BECMG 2403/2406 15010KT 2000 RA OVC013
TEMPO 2406/2411 OVC004
FM241100 24020G33KT 9999 BKN020
TEMPO 2414/2423 2000 RA OVC012
ATIS : +33 3 20 16 19 54



MET'MAP, your aeronautical weather chart ! - Copyright ORBIFLY December 2007 - Disclaimer

ORBIFLY MET'MAP TEAM :

Programming & Development : Alexandra Zaïnal
Concept & original design : Baudouin d'Aumeries
Assistance for programming : Marc-Olivier Méhu
Technical & hardware support : Manuel Goepfert

Contact : metmap@orbifly.com




SOURCES & CREDITS :

   NOAA